Terminal Aerodrome Forecast
Issued by NWS

Home | Current Version | Previous Version | Text Only | Print | Product List | Glossary On
Versions: 1 2 3 4 5 6 7 8 9 10 11 12
000
FTUS44 KLIX 211740
TAFHDC
TAF
KHDC 211740Z 2118/2218 18011KT P6SM BKN035 OVC040
     FM220200 13008KT 6SM BR BKN015
     FM220400 14008KT 6SM BR BKN030
     FM220600 14007KT 3SM BR BKN015
      TEMPO 2207/2211 1 1/2SM BR BKN003
     FM221100 17007KT 5SM -RA BR OVC014 PROB30 2212/2218 VRB14G24KT
      1SM TSRA BR OVC003CB=

USA.gov is the U.S. government's official web portal to all federal, state and local government web resources and services.